KFME/FME METAR and TAF weather

Enter ICAO airport designator
Station Type Date Time Source
KFME METAR 2024/02/26 18:08 UTC NOAA

KFME 261808Z AUTO 14003KT 10SM CLR 16/00 A3002 RMK AO1


Station Type Date Time Source
KFME Decoded METAR 2024/02/26 18:08 UTC NOAA

Fort Meade / Tipton, MD, United States (KFME) 39-05N 076-46W
Feb 26, 2024 - 01:08 PM EST / 2024.02.26 1808 UTC
Wind: from the SE (140 degrees) at 3 MPH (3 KT):0
Visibility: 10 mile(s):0
Sky conditions: clear
Temperature: 60 F (16 C)
Dew Point: 32 F (0 C)
Relative Humidity: 33%
Pressure (altimeter): 30.02 in. Hg (1016 hPa)
ob: KFME 261808Z AUTO 14003KT 10SM CLR 16/00 A3002 RMK AO1
cycle: 18

Station Type Date Time Source
KFME TAF UTC NOAA

Error!

Example: see airport list